Green Castle, Missouri
Current Conditions -  °F | °C
As of 6:55 PM on Tuesday 21 Oct 2014 (Local Time) from KIRK Reporting Station
Clear Clear  
Wind Chill: 56°   Ceiling: Unl
Heat Index: 56°   Visibility: 10mi
Dew Point: 45°   Wind: 5mph
Humidity: 67%   Direction: 80°E
Pressure: 30.15"   Gusts: NA
Location:  40.26°N, 92.88°W
Report Text: KIRK 212355Z AUTO 08004KT 10SM CLR 13/07 A3015 RMK AO2 SLP216 T01330072 10189 20133 53006
Loading
Personal Weather Stations






























Interactive Weather Map
Tropical Storm Tracking
New forecast layout! Learn more

10-Day Weather Forecast

Advertisements
Track Severe Weather on mobile